Signal Hill, California
Current Conditions -  °F | °C
As of 11:32 PM on Sunday 21 Dec 2014 (Local Time) from KLGB Reporting Station
Haze Haze  
Wind Chill: 56°   Ceiling: Unl
Heat Index: 56°   Visibility: 3mi
Dew Point: 54°   Wind: 0mph
Humidity: 93%   Direction: NA
Pressure: 30.05"   Gusts: NA
Location:  33.8°N, 118.16°W
Report Text: KLGB 220732Z 00000KT 3SM BR CLR 13/12 A3005 RMK AO2 T01330122
Loading
Personal Weather Stations






























Interactive Weather Map New forecast layout! Learn more

10-Day Weather Forecast

Advertisements
Track Severe Weather on mobile